Tiempo atmosférico en la estación meteorológica de Valencia Aeropuerto, València/Valencia (69 m.)



Fecha
DESCASC
Temp. máxima en grados centígrados (hora)
DESCASC
Temp. mínima en grados centígrados (hora)
DESCASC
Temp. media en grados centígrados
DESCASC
Racha de viento máxima en m/sg (hora)
DESCASC
Velocidad máxima media en intervalos de 10 minutos(hora)
DESCASC
Precipitaciones diarias en mm
DESCASC
Precipitaciones de 00:00 a 06:00 en mm
DESCASC
Precipitaciones de 06:00 a 12:00 en mm
DESCASC
Precipitaciones de 12:00 a 18:00 en mm
DESCASC
Precipitaciones de 18:00 a 24:00 en mm
DESCASC
16-06-2019 25.3 (15:40) 16 (07:00) 20.6 7.78 (13:50) 4.72 (13:30) 0 0 0 0 0
15-06-2019 32.1 (14:50) 19.2 (07:20) 25.6 12.5 (16:10) 9.44 (16:20) 0 0 0 0 0
14-06-2019 30.7 (14:20) 16.8 (04:10) 23.8 -- (--) -- (--) -- 0 -- 0 0
13-06-2019 24.3 (15:30) 17.2 (00:00) 20.8 10.83 (17:40) 6.67 (17:10) 0 0 0 0 0
12-06-2019 22.7 (13:40) 11 (00:00) 16.9 10.28 (15:20) 6.67 (16:40) 0 0 0 0 0
11-06-2019 23.7 (13:00) 16 (00:00) 19.9 11.39 (12:40) 8.06 (14:00) 0 0 0 0 0
10-06-2019 26.4 (12:30) 14.5 (00:00) 20.4 10.83 (16:40) 7.78 (16:30) -- 0 -- 0 0
09-06-2019 27.7 (15:50) 16.3 (00:00) 22 8.33 (16:20) 6.11 (17:10) 0 0 0 0 0
08-06-2019 23.4 (15:20) 16.1 (00:00) 19.8 12.5 (10:30) 8.61 (11:10) 0 0 0 0 0
07-06-2019 30.6 (18:30) 15 (00:00) 22.8 13.33 (11:40) 9.72 (11:40) 0 0 0 0 0
06-06-2019 24.4 (15:30) 14 (00:00) 19.2 11.67 (15:00) 6.94 (17:00) 0 0 0 0 0
05-06-2019 29.3 (16:50) 16.4 (00:00) 22.8 22.78 (13:10) 15 (13:10) 0 0 0 0 0
04-06-2019 26.4 (14:00) 14.7 (00:00) 20.5 11.39 (15:00) 7.22 (20:00) 0 0 0 0 0
03-06-2019 27.7 (13:00) 14 (00:00) 20.9 9.17 (18:50) 6.67 (19:00) 0 0 0 0 0
02-06-2019 27.2 (12:30) 13.3 (00:00) 20.3 9.72 (17:20) 7.22 (17:20) 0 0 0 0 0
01-06-2019 26.3 (14:40) 13 (00:00) 19.6 9.17 (16:40) 6.67 (15:30) 0 0 0 0 0
31-05-2019 26.9 (14:00) 12.8 (00:00) 19.8 9.72 (14:20) 7.22 (14:20) 0 0 0 0 0
30-05-2019 26 (12:50) 11.6 (00:00) 18.8 9.17 (14:20) 6.39 (17:00) 0 0 0 0 0
29-05-2019 24.5 (13:50) 13.3 (00:00) 18.9 9.72 (14:50) 7.22 (15:00) 0 0 0 0 0
28-05-2019 23.6 (11:20) 14.8 (00:00) 19.2 9.72 (16:40) 6.67 (14:20) 0 0 0 0 0
27-05-2019 25.5 (12:10) 13.3 (00:00) 19.4 8.89 (14:20) 5.83 (15:40) 0 0 0 0 0
26-05-2019 24.9 (13:00) 13.1 (00:00) 19 8.89 (14:20) 5.83 (14:20) 0 0 0 0 0
25-05-2019 23.9 (17:20) 15.1 (00:00) 19.5 8.89 (06:20) 5 (15:00) 0.4 0.4 0 0 0
24-05-2019 19.2 (00:00) 16 (00:00) 17.6 9.17 (10:00) 5.83 (11:50) 4.4 0 2.8 1.3 0.3
23-05-2019 27.2 (12:50) 13.7 (00:00) 20.5 9.17 (17:40) 5.83 (17:30) 0 0 0 0 0
22-05-2019 24.6 (15:00) 12.1 (00:00) 18.4 8.89 (16:00) 5.83 (17:30) 0 0 0 0 0
21-05-2019 23.7 (14:50) 15 (23:40) 19.4 9.17 (14:20) 6.39 (17:20) 8.1 0 0 0 8.1

Gráficas

Temp. máximas Temp. mínimas Temp. medias Precipitaciones Rachas de viento máximas Velocidades máximas media en intervalos de 10 minutos

Datos horarios

Fecha y hora oficial Temperatura (ºC) Velocidad del viento (km/h) Dirección del viento Racha (km/h) Dirección de racha Precipitación (mm) Presión (hPa) Tendencia (hPa) Humedad (%)
2019-06-19 23:00:00 24.5 12 Nordeste 17 Este 0 1004.5 1 52
2019-06-19 22:00:00 25.8 8 Nordeste 22 Norte 0 1004 0.7 45
2019-06-19 21:00:00 27.4 9 Este 28 Nordeste 0 1003.8 0.2 39
2019-06-19 20:00:00 27.5 13 Este 35 Nordeste 0 1003.5 -0.8 44
2019-06-19 19:00:00 28.6 17 Este 24 Este 0 1003.3 -1.2 43
2019-06-19 18:00:00 29.1 16 Este 28 Este 0 1003.6 -1.4 36
2019-06-19 17:00:00 27.2 20 Sudeste 32 Este 0 1004.3 -1.1 46
2019-06-19 16:00:00 27.3 20 Este 30 Sudeste 0 1004.5 -1.2 55
2019-06-19 15:00:00 27.9 21 Este 33 Este 0 1005 -0.9 54
2019-06-19 14:00:00 28.6 19 Este 28 Sudeste 0 1005.4 -0.8 48
2019-06-19 13:00:00 28.5 16 Este 26 Sudeste 0 1005.7 -0.9 49
2019-06-19 12:00:00 29.6 9 Sudeste 17 Sudeste 0 1005.9 -0.5 34
2019-06-19 11:00:00 26.8 6 Este 21 Nordeste 0 1006.2 0.1 43
2019-06-19 10:00:00 23.9 5 Este 13 Este 0 1006.6 1.1 59
2019-06-19 09:00:00 21.8 4 Nordeste 13 Norte 0 1006.4 1.2 71
2019-06-19 08:00:00 18.3 10 Noroeste 15 Noroeste 0 1006.1 1.1 78
2019-06-19 07:00:00 16.4 9 Noroeste 18 Norte 0 1005.5 0.3 84
2019-06-19 06:00:00 16.8 9 Noroeste 11 Noroeste 0 1005.2 -0.5 86
2019-06-19 05:00:00 17.3 6 Noroeste 8 Noroeste 0 1005 -1 87
2019-06-19 04:00:00 17.5 5 Oeste 8 Oeste 0 1005.2 -1 86
2019-06-19 03:00:00 18.4 5 Sudoeste 8 Oeste 0 1005.7 -0.9 83
2019-06-19 02:00:00 20 5 Este 13 Nordeste 0 1006 -0.2 72
2019-06-19 01:00:00 20.5 9 Este 13 Este 0 1006.2 0.5 74
2019-06-19 00:00:00 20.9 6 Nordeste 24 Nordeste 0 1006.6 1.4 74
2019-06-18 23:00:00 21.1 15 Nordeste 30 Nordeste 0 1006.2 1 75
2019-06-18 22:00:00 21.9 15 Nordeste 28 Nordeste 0 1005.7 0.5 73
2019-06-18 21:00:00 23 18 Nordeste 28 Nordeste 0 1005.2 -0.2 67
2019-06-18 20:00:00 24 19 Nordeste 39 Nordeste 0 1005.2 -0.4 63
2019-06-18 19:00:00 24.9 17 Este 28 Este 0 1005.2 -0.9 61
2019-06-18 18:00:00 26 17 Nordeste 30 Este 0 1005.4 -1.2 58
2019-06-18 17:00:00 27.3 19 Nordeste 37 Este 0 1005.6 -1.6 52
2019-06-18 16:00:00 27.8 15 Este 30 Este 0 1006.1 -1.5 48
2019-06-18 15:00:00 26.7 18 Este 32 Este 0 1006.6 -1.1 52
2019-06-18 14:00:00 26.5 18 Este 28 Este 0 1007.2 -0.7 50
2019-06-18 13:00:00 25.9 16 Este 30 Este 0 1007.6 -0.5 55
2019-06-18 12:00:00 25.9 18 Sudeste 28 Sudeste 0 1007.7 -0.4 49
2019-06-18 11:00:00 25.9 11 Sudeste 18 Sudeste 0 1007.9 -0.1 47
2019-06-18 10:00:00 24.7 4 Sudeste 11 Sur 0 1008.1 0.5 50
2019-06-18 09:00:00 20.8 5 Noroeste 9 Noroeste 0 1008.1 0.6 61
2019-06-18 08:00:00 17.7 7 Oeste 9 Noroeste 0 1008 0.5 77
2019-06-18 07:00:00 16.5 6 Noroeste 13 Noroeste 0 1007.6 -0.3 83
2019-06-18 06:00:00 16.8 5 Noroeste 9 Noroeste 0 1007.5 -0.4 85
2019-06-18 05:00:00 17.9 0 Calma 9 Sudoeste 0 1007.5 -0.9 83
2019-06-18 04:00:00 18.4 4 Sudoeste 9 Sudoeste 0 1007.9 -0.8 81
2019-06-18 03:00:00 18.3 7 Oeste 13 Noroeste 0 1007.9 -1 81
2019-06-18 02:00:00 19.5 11 Oeste 18 Nordeste 0 1008.4 0.2 74
2019-06-18 01:00:00 21 14 Nordeste 24 Nordeste 0 1008.7 1.1 68
2019-06-18 00:00:00 21 13 Nordeste 24 Nordeste 0 1008.9 1.5 72
2019-06-17 23:00:00 21.2 16 Nordeste 32 Nordeste 0 1008.2 1.1 74
2019-06-17 22:00:00 21.6 20 Nordeste 37 Nordeste 0 1007.6 0.9 75
2019-06-17 21:00:00 23.1 19 Nordeste 41 Nordeste 0 1007.4 0.3 66
2019-06-17 20:00:00 25 22 Nordeste 33 Nordeste 0 1007.1 -0.4 55
2019-06-17 19:00:00 26.2 16 Este 24 Este 0 1006.7 -1.1 52
2019-06-17 18:00:00 26.4 18 Nordeste 30 Sudeste 0 1007.1 -1.2 56
2019-06-17 17:00:00 26.4 18 Este 33 Este 0 1007.5 -1.1 56
2019-06-17 16:00:00 27 20 Este 32 Este 0 1007.8 -1 50
2019-06-17 15:00:00 26.6 23 Este 35 Este 0 1008.3 -0.6 49
2019-06-17 14:00:00 27.1 22 Este 33 Este 0 1008.6 -0.7 51
2019-06-17 13:00:00 28.4 16 Este 26 Este 0 1008.8 -0.8 44
2019-06-17 12:00:00 28.4 12 Sudeste 21 Sudeste 0 1008.9 -1 43
2019-06-17 11:00:00 26.5 7 Sur 13 Sudoeste 0 1009.3 -0.4 45
2019-06-17 10:00:00 23.3 8 Sur 11 Sur 0 1009.6 0 57
2019-06-17 09:00:00 20.6 4 Oeste 8 Oeste 0 1009.9 0.4 70
2019-06-17 08:00:00 17.8 3 Oeste 5 Noroeste 0 1009.7 0.2 82
2019-06-17 07:00:00 15.8 3 Oeste 11 Noroeste 0 1009.6 -0.5 90
2019-06-17 06:00:00 16.4 8 Noroeste 11 Noroeste 0 1009.5 -1 90
2019-06-17 05:00:00 16.8 6 Sudoeste 9 Sudoeste 0 1009.5 -1.3 89
2019-06-17 04:00:00 17.1 7 Oeste 8 Oeste 0 1010.1 -1.3 88
2019-06-17 03:00:00 17.8 5 Sudoeste 9 Sudoeste 0 1010.5 -1.1 88
2019-06-17 02:00:00 18.5 7 Oeste 9 Noroeste 0 1010.8 -0.5 85
2019-06-17 01:00:00 19.7 5 Sur 11 Sudeste 0 1011.4 0.7 83
2019-06-17 00:00:00 20.1 9 Sudeste 11 Sudeste 0 1011.6 0.8 80
2019-06-16 23:00:00 20.9 5 Sur 11 Este 0 1011.3 0.4 75
2019-06-16 22:00:00 20.9 3 Sudeste 13 Este 0 1010.7 0.1 73
2019-06-16 21:00:00 21.4 4 Sur 21 Sudeste 0 1010.8 -0.6 72
2019-06-16 20:00:00 22.4 12 Sudeste 18 Sur 0 1010.9 -0.6 68
2019-06-16 19:00:00 22.7 10 Este 21 Este 0 1010.6 -1.2 67
2019-06-16 18:00:00 23.5 11 Sudeste 26 Este 0 1011.4 -1.3 60
2019-06-16 17:00:00 23.1 15 Este 26 Este 0 1011.5 -1.8 63
2019-06-16 16:00:00 24.4 17 Este 28 Este 0 1011.8 -1.6 58
2019-06-16 15:00:00 24.6 14 Este 26 Este 0 1012.7 -1.1 57
2019-06-16 14:00:00 -- 14 Este 28 Este 0 1013.3 -0.5 --
2019-06-16 13:00:00 24.3 15 Este 26 Este 0 1013.4 -0.4 53
2019-06-16 12:00:00 23.9 14 Este 22 Este 0 1013.8 0.2 57
2019-06-16 11:00:00 23.6 11 Este 22 Este 0 1013.8 0.6 58
2019-06-16 10:00:00 22.7 11 Este 18 Nordeste 0 1013.8 0.9 59
2019-06-16 09:00:00 19.6 11 Noroeste 17 Norte 0 1013.6 1.2 62
2019-06-16 08:00:00 17.3 10 Noroeste 17 Norte 0 1013.2 0.7 64
2019-06-16 07:00:00 16.1 9 Oeste 21 Norte 0 1012.9 0.4 72
2019-06-16 06:00:00 18.8 9 Nordeste 15 Nordeste 0 1012.4 0 82
2019-06-16 05:00:00 18.1 9 Nordeste 13 Nordeste 0 1012.5 0.1 82
2019-06-16 04:00:00 16.7 5 Noroeste 9 Noroeste 0 1012.5 0.4 65
2019-06-16 03:00:00 17.3 9 Noroeste 17 Noroeste 0 1012.4 0.3 60
2019-06-16 02:00:00 18.2 2 Este 18 Noroeste 0 1012.4 0.9 58
2019-06-16 01:00:00 18.8 10 Noroeste 13 Noroeste 0 1012.1 1.8 57
2019-06-16 00:00:00 20.9 8 Norte 18 Nordeste 0 1012.1 2.4 50
2019-06-15 23:00:00 21.4 10 Nordeste 18 Noroeste 0 1011.5 2.7 52
2019-06-15 22:00:00 21.7 14 Nordeste 24 Nordeste 0 1010.3 1.9 53
2019-06-15 21:00:00 23.2 15 Este 39 Nordeste 0 1009.7 1.2 47
2019-06-15 20:00:00 25.3 20 Este 30 Este 0 1008.8 0.3 37
2019-06-15 19:00:00 26.1 23 Este 35 Este 0 1008.4 0.5 37
2019-06-15 18:00:00 27.1 23 Este 45 Este 0 1008.5 0.7 31
2019-06-15 17:00:00 27.3 31 Este 45 Este 0 1008.5 0.1 28
2019-06-15 16:00:00 28.7 33 Este 42 Este 0 1007.9 -1 26
2019-06-15 15:00:00 31.4 13 Norte 30 Sudoeste 0 1007.8 -1.4 20
2019-06-15 14:00:00 30.9 13 Oeste 30 Oeste 0 1008.4 -1.1 16
2019-06-15 13:00:00 29.7 16 Oeste 30 Oeste 0 1008.9 -0.7 18
2019-06-15 12:00:00 28.5 13 Oeste 35 Noroeste 0 1009.2 0.1 20
2019-06-15 11:00:00 26.7 24 Noroeste 41 Oeste 0 1009.5 1.3 21
2019-06-15 10:00:00 25.6 21 Noroeste 33 Oeste 0 1009.6 1.9 24
2019-06-15 09:00:00 24.1 19 Oeste 30 Oeste 0 1009.1 1.8 26
2019-06-15 08:00:00 21.5 12 Oeste 18 Sudoeste 0 1008.2 1.2 32
2019-06-15 07:00:00 19.6 15 Oeste 21 Oeste 0 1007.7 1.4 33
2019-06-15 06:00:00 20.5 15 Oeste 22 Oeste 0 1007.3 1.1 31
2019-06-15 05:00:00 22.4 17 Oeste 39 Oeste 0 1007 1.1 26
2019-06-15 04:00:00 23.1 27 Oeste 41 Noroeste 0 1006.3 0.7 25
2019-06-15 03:00:00 22.8 18 Oeste 32 Oeste 0 1006.2 1 26
2019-06-15 02:00:00 22.1 17 Oeste 24 Oeste 0 1005.9 1.2 27
2019-06-15 01:00:00 23.5 18 Oeste 24 Oeste 0 1005.6 2 24
2019-06-15 00:00:00 24.1 13 Oeste 21 Oeste 0 1005.2 2.3 30
2019-06-14 23:00:00 25 4 Sudeste 11 Este 0 1004.7 2.3 62
2019-06-14 22:00:00 26.4 9 Este 17 Este 0 1003.6 1.4 51
2019-06-14 21:00:00 28 13 Este 21 Sudeste 0 1002.9 0.7 44
2019-06-14 20:00:00 28.8 15 Sudeste 28 Este 0 1002.4 0 38
2019-06-14 19:00:00 28.9 21 Sudeste 33 Sudeste 0 1002.2 -0.3 35
2019-06-14 18:00:00 29.7 25 Sudeste 35 Este 0 1002.2 -0.5 36
2019-06-14 17:00:00 29 20 Este 35 Sudeste 0 1002.4 -0.7 35
2019-06-14 16:00:00 29.4 25 Sudeste 33 Sudeste 0 1002.5 -1 32
2019-06-14 15:00:00 28.8 24 Sudeste 32 Sudeste 0 1002.7 -1 34
2019-06-14 14:00:00 30.2 6 Sur 24 Oeste 0 1003.1 -0.6 29
2019-06-14 13:00:00 28.2 10 Sudoeste 22 Sudoeste 0 1003.5 0.1 35
2019-06-14 12:00:00 26.3 6 Sudoeste 18 Oeste 0 1003.7 -- 41
2019-06-14 11:00:00 23.7 8 Oeste 21 Noroeste 0 1003.7 -0.3 49
2019-06-14 10:00:00 21.9 21 Noroeste -- -- -- 1003.4 1.2 53
2019-06-14 09:00:00 -- -- -- -- -- -- -- -- --
2019-06-14 08:00:00 17.8 12 Sudoeste 18 Sudoeste 0 1004 1.1 61
2019-06-14 07:00:00 17.6 3 Sur 18 Sur 0 1002.2 -0.5 67
2019-06-14 06:00:00 17.8 10 Nordeste 13 Nordeste 0 1002.2 -0.7 63
2019-06-14 05:00:00 17.5 9 Sudoeste 15 Sur 0 1002.9 -0.5 64
2019-06-14 04:00:00 17 4 Sudoeste 13 Sur 0 1002.7 -2.2 74
2019-06-14 03:00:00 16.9 11 Oeste 15 Oeste 0 1002.9 -2.6 74
2019-06-14 02:00:00 17.7 8 Oeste 13 Noroeste 0 1003.4 -1.8 68
2019-06-14 01:00:00 19 4 Nordeste 13 Este 0 1004.9 0.4 59
2019-06-14 00:00:00 19.1 6 Este 17 Este 0 1005.5 1.2 64
2019-06-13 23:00:00 19.2 9 Nordeste 21 Este 0 1005.2 1.1 68
2019-06-13 22:00:00 19.4 13 Este 21 Este 0 1004.5 0.4 71
2019-06-13 21:00:00 20.6 16 Este 33 Nordeste 0 1004.3 0.1 63
2019-06-13 20:00:00 21.6 17 Este 28 Nordeste 0 1004.1 -0.4 61
2019-06-13 19:00:00 22.1 22 Este 32 Nordeste 0 1004.1 -0.9 62
2019-06-13 18:00:00 22.9 22 Este 39 Este 0 1004.2 -1.2 55
2019-06-13 17:00:00 23.5 24 Este 33 Este 0 1004.5 -1.4 53
2019-06-13 16:00:00 24 22 Este 35 Nordeste 0 1005 -1.5 54
2019-06-13 15:00:00 23.8 20 Este 32 Sudeste 0 1005.4 -1.5 54
2019-06-13 14:00:00 23.9 17 Este 32 Este 0 1005.9 -1 54
2019-06-13 13:00:00 22 15 Este 32 Este 0 1006.5 -0.7 65
2019-06-13 12:00:00 20.5 17 Este 30 Este 0 1006.9 0.1 73
2019-06-13 11:00:00 21.2 18 Este 26 Este 0 1006.9 0.5 66
2019-06-13 10:00:00 20.6 9 Nordeste 24 Nordeste 0 1007.2 1.1 67
2019-06-13 09:00:00 19.1 10 Nordeste 17 Nordeste 0 1006.8 0.8 68
2019-06-13 08:00:00 18 10 Noroeste 17 Norte 0 1006.4 0.4 77
2019-06-13 07:00:00 17.7 13 Noroeste 18 Norte 0 1006.1 -0.1 78
2019-06-13 06:00:00 17.4 9 Noroeste 18 Oeste 0 1006 -0.6 80
2019-06-13 05:00:00 18.3 8 Noroeste 21 Nordeste 0 1006 -1 72
2019-06-13 04:00:00 18.6 14 Nordeste 24 Nordeste 0 1006.2 -1.1 59
2019-06-13 03:00:00 18.6 13 Nordeste 18 Este 0 1006.6 -0.9 59
2019-06-13 02:00:00 18.7 9 Nordeste 22 Nordeste 0 1007 -0.6 63
2019-06-13 01:00:00 18.5 15 Nordeste 22 Nordeste 0 1007.3 0.3 69
2019-06-13 00:00:00 18.6 15 Nordeste 24 Nordeste 0 1007.5 0.7 72
2019-06-12 23:00:00 18.9 15 Nordeste 22 Nordeste 0 1007.6 1.1 72
2019-06-12 22:00:00 18.6 14 Este 22 Nordeste 0 1007 0.7 72
2019-06-12 21:00:00 19.2 15 Este 24 Este 0 1006.8 0 68
2019-06-12 20:00:00 20.4 16 Sudeste 26 Este 0 1006.5 -0.7 56
2019-06-12 19:00:00 21 17 Sudeste 30 Este 0 1006.3 -0.8 46
2019-06-12 18:00:00 21.3 21 Este 33 Este 0 1006.8 -0.6 43
2019-06-12 17:00:00 21.6 23 Sudeste 33 Sudeste 0 1007.2 -0.7 37
2019-06-12 16:00:00 21.9 20 Sudeste 37 Sudeste 0 1007.1 -1.1 41
2019-06-12 15:00:00 22 20 Este 32 Sudeste 0 1007.4 -1.2 41
2019-06-12 14:00:00 22.4 18 Sudeste 28 Sudeste 0 1007.9 -1.1 36
2019-06-12 13:00:00 22.3 13 Sudeste 26 Sudeste 0 1008.2 -0.9 31
2019-06-12 12:00:00 21.3 9 Este 24 Este 0 1008.6 -0.4 34
2019-06-12 11:00:00 20.2 10 Norte 18 Nordeste 0 1009 0.4 34
2019-06-12 10:00:00 18.7 5 Noroeste 15 Norte 0 1009.1 1.1 50
2019-06-12 09:00:00 16.1 10 Noroeste 21 Noroeste 0 1009 1.5 56
2019-06-12 08:00:00 14 12 Noroeste 17 Noroeste 0 1008.6 1.6 63
2019-06-12 07:00:00 11.7 8 Oeste 15 Noroeste 0 1008 0.8 81
2019-06-12 06:00:00 11.4 7 Oeste 9 Oeste 0 1007.5 0.2 85
2019-06-12 05:00:00 11.7 5 Oeste 9 Noroeste 0 1007 -0.7 84
2019-06-12 04:00:00 12.7 5 Oeste 9 Oeste 0 1007.2 -0.8 82
2019-06-12 03:00:00 13.5 5 Noroeste 9 Oeste 0 1007.3 -0.4 79
2019-06-12 02:00:00 14.5 7 Norte 9 Norte 0 1007.7 0.1 73
2019-06-12 01:00:00 15.7 5 Norte 8 Norte 0 1008 1.2 69
2019-06-12 00:00:00 16.6 6 Sudoeste 11 Sur 0 1007.7 1.7 65
2019-06-11 23:00:00 17.5 8 Sur 17 Sudeste 0 1007.6 2 62
2019-06-11 22:00:00 18.4 13 Este 24 Este 0 1006.8 1.9 57
2019-06-11 21:00:00 20.8 12 Este 21 Este 0 1006 1.6 32
2019-06-11 20:00:00 20.4 13 Nordeste 28 Nordeste 0 1005.6 1.8 32
2019-06-11 19:00:00 20.8 12 Nordeste 32 Este 0 1004.9 1.3 38
2019-06-11 18:00:00 -- 20 Este 33 Este 0 1004.4 1.1 --
2019-06-11 17:00:00 21 25 Este 41 Este 0 1003.8 0.9 46
2019-06-11 16:00:00 21.3 28 Este 41 Este 0 1003.6 0.6 49
2019-06-11 15:00:00 22.2 27 Este 41 Este 0 1003.3 0.2 43
2019-06-11 14:00:00 23.1 29 Este 41 Este 0 1002.9 -0.3 38
2019-06-11 13:00:00 23.6 24 Este 41 Nordeste 0 1003 -0.3 33
2019-06-11 12:00:00 22.9 22 Nordeste 35 Este 0 1003.1 -0.1 36
2019-06-11 11:00:00 22.7 16 Este 35 Este 0 1003.2 -0.1 39
2019-06-11 10:00:00 21.4 17 Nordeste 30 Nordeste 0 1003.3 0.2 51
2019-06-11 09:00:00 20 11 Nordeste 22 Nordeste 0 1003.2 0.4 60
2019-06-11 08:00:00 18 9 Noroeste 15 Oeste 0 1003.3 0.2 72
2019-06-11 07:00:00 17 9 Noroeste 17 Noroeste 0 1003.1 -0.6 75
2019-06-11 06:00:00 17.4 12 Noroeste 18 Noroeste 0 1002.8 -1.5 73
2019-06-11 05:00:00 17.1 12 Noroeste 18 Noroeste 0 1003.1 -1.8 75
2019-06-11 04:00:00 17.8 14 Noroeste 21 Noroeste 0 1003.7 -1.6 71
2019-06-11 03:00:00 18.5 14 Noroeste 17 Noroeste 0 1004.3 -1.4 68
2019-06-11 02:00:00 20 9 Noroeste 17 Este 0 1004.9 -0.9 67
2019-06-11 01:00:00 20.5 11 Nordeste 28 Nordeste 0 1005.3 -0.1 66
2019-06-11 00:00:00 20.3 10 Nordeste 18 Nordeste 0 1005.7 1.1 68
2019-06-10 23:00:00 20.4 11 Nordeste 18 Norte 0 1005.8 1.4 63
2019-06-10 22:00:00 20.6 8 Este 30 Nordeste 0 1005.4 0.9 64
2019-06-10 21:00:00 21.6 15 Este 26 Nordeste 0 1004.6 0.1 59
2019-06-10 20:00:00 23.1 15 Este 28 Sudeste 0 1004.4 -0.2 56
2019-06-10 19:00:00 22.8 19 Este 35 Este 0 1004.5 -0.5 57
2019-06-10 18:00:00 23.5 26 Este 35 Este 0 1004.5 -0.8 55
2019-06-10 17:00:00 23.4 27 Sudeste 39 Sudeste 0 1004.6 -1.5 62
2019-06-10 16:00:00 25.1 24 Sudeste 37 Sudeste 0 1005 -1.7 54
2019-06-10 15:00:00 25.2 21 Sudeste 33 Sudeste 0 1005.3 -1.7 50
2019-06-10 14:00:00 25.7 20 Sudeste 37 Este 0 1006.1 -1.2 48
2019-06-10 13:00:00 26.1 19 Este 35 Este 0 1006.7 -0.8 41
2019-06-10 12:00:00 25.8 8 Nordeste 22 Este 0 1007 -0.6 33
2019-06-10 11:00:00 24.9 7 Sudeste 28 Nordeste 0 1007.3 0.2 32
2019-06-10 10:00:00 23 4 Noroeste 13 Norte -- 1007.5 1 48
2019-06-10 09:00:00 20.5 5 Norte 9 Norte 0 1007.6 1.7 55
2019-06-10 08:00:00 17.1 3 Oeste 13 Oeste 0 1007.1 1.6 60
2019-06-10 07:00:00 14.7 5 Oeste 11 Oeste 0 1006.5 1.1 66
2019-06-10 06:00:00 15.3 8 Oeste 13 Oeste 0 1005.9 0.3 64
2019-06-10 05:00:00 16.4 3 Nordeste 17 Noroeste 0 1005.5 -0.5 56
2019-06-10 04:00:00 15.4 8 Noroeste 11 Noroeste 0 1005.4 -1.2 61
2019-06-10 03:00:00 14.8 6 Oeste 11 Oeste 0 1005.6 -1.2 64
2019-06-10 02:00:00 15.5 8 Oeste 13 Noroeste 0 1006 -0.9 62
2019-06-10 01:00:00 16.6 5 Oeste 11 Noroeste 0 1006.6 0.4 61
2019-06-10 00:00:00 18.1 9 Noroeste 13 Noroeste 0 1006.8 0.9 56
2019-06-09 23:00:00 20.2 5 Noroeste 13 Norte 0 1006.9 1.3 49
2019-06-09 22:00:00 21.6 8 Norte 26 Nordeste 0 1006.2 0.8 45
2019-06-09 21:00:00 22.7 10 Este 21 Nordeste 0 1005.9 0.3 39
2019-06-09 20:00:00 24.4 12 Este 21 Sudeste 0 1005.6 -0.2 32
2019-06-09 19:00:00 24.1 15 Sudeste 28 Sudeste 0 1005.4 -1 30
2019-06-09 18:00:00 24.4 21 Sudeste 30 Este 0 1005.6 -1.4 29
2019-06-09 17:00:00 24.9 21 Sudeste 30 Este 0 1005.8 -1.5 27
2019-06-09 16:00:00 27.3 9 Sudoeste 18 Sudoeste 0 1006.4 -1.7 32
2019-06-09 15:00:00 26.1 9 Sur 17 Sur 0 1007 -1.9 33
2019-06-09 14:00:00 25.2 3 Oeste 13 Oeste 0 1007.3 -1.4 27
2019-06-09 13:00:00 25.4 5 Sur 13 Sur 0 1008.1 -1.6 25
2019-06-09 12:00:00 24 6 Sudoeste 13 Oeste 0 1008.9 -0.8 29
2019-06-09 11:00:00 22.8 3 Noroeste 13 Sudoeste 0 1008.7 -1 35
2019-06-09 10:00:00 20.1 7 Oeste 13 Noroeste 0 1009.7 0.9 54
2019-06-09 09:00:00 18.3 5 Oeste 11 Sudoeste 0 1009.7 -0.3 66
2019-06-09 08:00:00 17.3 5 Sudoeste 17 Noroeste 0 1009.7 -0.5 71
2019-06-09 07:00:00 16.6 11 Noroeste 17 Noroeste 0 1008.8 -1.8 75
2019-06-09 06:00:00 16.4 10 Oeste 17 Sudoeste 0 1010 -1.8 77
2019-06-09 05:00:00 17 11 Oeste 17 Oeste 0 1010.2 -2 75
2019-06-09 04:00:00 17.2 12 Noroeste 15 Noroeste 0 1010.6 -2.1 74
2019-06-09 03:00:00 17.1 11 Oeste 15 Oeste 0 1011.8 -1 76
2019-06-09 02:00:00 17.5 8 Oeste 11 Oeste 0 1012.2 -0.9 75
2019-06-09 01:00:00 18.4 6 Sur 11 Sudoeste 0 1012.7 -0.6 67
2019-06-09 00:00:00 18.8 4 Nordeste 21 Nordeste 0 1012.8 -0.6 65
2019-06-08 23:00:00 18.9 9 Nordeste 18 Este 0 1013.1 -0.5 67
2019-06-08 22:00:00 19 10 Nordeste 21 Este 0 1013.3 -0.2 66
2019-06-08 21:00:00 19.4 15 Este 32 Este 0 1013.4 -0.4 64
2019-06-08 20:00:00 20.4 17 Este 28 Este 0 1013.6 -0.6 60
2019-06-08 19:00:00 21.4 20 Este 32 Este 0 1013.5 -1.4 56
2019-06-08 18:00:00 22.1 22 Este 39 Este 0 1013.8 -1.6 52
2019-06-08 17:00:00 22.7 21 Este 39 Este 0 1014.2 -1.7 51
2019-06-08 16:00:00 22.8 25 Este 45 Este 0 1014.9 -1.3 50
2019-06-08 15:00:00 23 25 Este 42 Este 0 1015.4 -0.8 49
2019-06-08 14:00:00 23 26 Este 42 Este 0 1015.9 -0.1 50
2019-06-08 13:00:00 22.8 26 Este 42 Este 0 1016.2 0.6 50
2019-06-08 12:00:00 22.8 27 Este 42 Este 0 1016.2 0.9 50
2019-06-08 11:00:00 22.6 28 Este 45 Este 0 1016 1.2 53
2019-06-08 10:00:00 21.7 27 Nordeste 41 Nordeste 0 1015.6 1.4 57
2019-06-08 09:00:00 21 26 Nordeste 41 Nordeste 0 1015.3 1.7 63
2019-06-08 08:00:00 19.7 21 Nordeste 33 Nordeste 0 1014.8 1.9 72
2019-06-08 07:00:00 18.9 13 Nordeste 28 Nordeste 0 1014.2 1.3 54
2019-06-08 06:00:00 16.9 11 Norte 22 Norte 0 1013.6 0.7 73
2019-06-08 05:00:00 16.6 9 Noroeste 11 Noroeste 0 1012.9 0.3 80
2019-06-08 04:00:00 18.7 7 Oeste 9 Oeste 0 1012.9 0.9 73
2019-06-08 03:00:00 19.5 7 Este 11 Este 0 1012.9 1.2 68
2019-06-08 02:00:00 20 0 Calma 13 Nordeste 0 1012.6 1.7 65
2019-06-08 01:00:00 20.6 8 Norte 22 Nordeste 0 1012 2.4 65
2019-06-08 00:00:00 20.9 15 Nordeste 35 Nordeste 0 1011.7 3.2 71
2019-06-07 23:00:00 21.2 17 Nordeste 33 Nordeste 0 1010.9 3.5 72
2019-06-07 22:00:00 22.2 25 Este 45 Nordeste 0 1009.6 2.8 61
2019-06-07 21:00:00 25 27 Nordeste 41 Nordeste 0 1008.5 1.9 47
2019-06-07 20:00:00 30 15 Oeste 30 Noroeste 0 1007.4 0.8 10
2019-06-07 19:00:00 30.3 24 Oeste 37 Oeste 0 1006.8 0.2 12
2019-06-07 18:00:00 30.1 25 Oeste 42 Oeste 0 1006.6 0 15
2019-06-07 17:00:00 30 31 Oeste 48 Oeste 0 1006.6 0 16
2019-06-07 16:00:00 29.4 27 Oeste 45 Oeste 0 1006.6 0.3 19
2019-06-07 15:00:00 28.6 23 Oeste 45 Oeste 0 1006.6 0.6 23
2019-06-07 14:00:00 28.2 30 Oeste 48 Oeste 0 1006.6 1.1 24
2019-06-07 13:00:00 27.6 29 Oeste 46 Oeste 0 1006.3 0.9 28
2019-06-07 12:00:00 26.6 28 Oeste 48 Oeste 0 1006 0.4 30
2019-06-07 11:00:00 25.3 30 Oeste 42 Oeste 0 1005.5 0.5 34
2019-06-07 10:00:00 22.9 4 Sudeste 11 Sudoeste 0 1005.4 1 40
2019-06-07 09:00:00 20 3 Sudoeste 9 Noroeste 0 1005.6 1.9 66
2019-06-07 08:00:00 17.1 3 Noroeste 9 Noroeste 0 1005 1.4 83
2019-06-07 07:00:00 15.2 4 Oeste 11 Noroeste 0 1004.4 0.8 92
2019-06-07 06:00:00 15.4 7 Oeste 13 Noroeste 0 1003.7 -0.1 94
2019-06-07 05:00:00 16 8 Oeste 11 Oeste 0 1003.6 -0.2 93
2019-06-07 04:00:00 16.9 7 Noroeste 13 Noroeste 0 1003.6 -0.6 91
2019-06-07 03:00:00 17.7 8 Noroeste 18 Norte 0 1003.8 -0.7 90
2019-06-07 02:00:00 18.7 10 Norte 15 Norte 0 1003.8 -0.8 86
2019-06-07 01:00:00 19.2 10 Nordeste 17 Nordeste 0 1004.2 0.2 84
2019-06-07 00:00:00 19.4 11 Este 18 Este 0 1004.5 0.6 83
2019-06-06 23:00:00 19.7 11 Este 21 Este 0 1004.6 0.9 81
2019-06-06 22:00:00 20 14 Este 35 Este 0 1004 0.2 80
2019-06-06 21:00:00 20.6 17 Este 28 Este 0 1003.9 -0.4 77
2019-06-06 20:00:00 21.8 20 Este 32 Este 0 1003.7 -1.3 71
2019-06-06 19:00:00 22.5 20 Este 35 Este 0 1003.8 -1.8 67
2019-06-06 18:00:00 23.2 23 Este 39 Este 0 1004.3 -1.9 63
2019-06-06 17:00:00 23.9 25 Este 41 Este 0 1005 -1.7 58
2019-06-06 16:00:00 24 22 Este 35 Este 0 1005.6 -1.6 55
2019-06-06 15:00:00 23.7 21 Este 42 Sudeste 0 1006.2 -1.1 55
2019-06-06 14:00:00 23.3 21 Este 35 Este 0 1006.7 -0.6 52
2019-06-06 13:00:00 23.2 20 Este 35 Este 0 1007.2 -0.4 49
2019-06-06 12:00:00 23 22 Este 33 Este 0 1007.3 -0.2 55
2019-06-06 11:00:00 22.3 18 Este 30 Este 0 1007.3 0.4 63
2019-06-06 10:00:00 21.2 9 Este 13 Este 0 1007.6 0.8 59
2019-06-06 09:00:00 18.3 8 Noroeste 13 Noroeste 0 1007.5 0.9 59
2019-06-06 08:00:00 16.1 7 Noroeste 11 Noroeste 0 1006.9 0.8 68
2019-06-06 07:00:00 14.1 6 Noroeste 13 Noroeste 0 1006.8 0.5 78
2019-06-06 06:00:00 14.5 10 Noroeste 17 Norte 0 1006.6 0.3 77
2019-06-06 05:00:00 15.4 14 Noroeste 22 Noroeste 0 1006.1 -0.2 74
2019-06-06 04:00:00 15.3 7 Noroeste 13 Oeste 0 1006.3 0.1 81
2019-06-06 03:00:00 16.6 10 Noroeste 13 Noroeste 0 1006.3 0.3 76
2019-06-06 02:00:00 18.8 7 Nordeste 17 Nordeste 0 1006.3 1.1 75
2019-06-06 01:00:00 19.4 9 Nordeste 13 Norte 0 1006.2 1.8 73
2019-06-06 00:00:00 19.8 11 Este 17 Este 0 1006 2.2 72
2019-06-05 23:00:00 20 12 Sudeste 21 Sudeste 0 1005.2 2.4 68
2019-06-05 22:00:00 20.7 14 Sudeste 22 Sudeste 0 1004.4 2.6 --
2019-06-05 21:00:00 21.7 17 Sudeste 28 Este 0 1003.8 2.3 61
2019-06-05 20:00:00 23.3 21 Este 33 Oeste 0 1002.8 1.5 53
2019-06-05 19:00:00 28.1 24 Oeste 42 Noroeste 0 1001.8 0.6 12
2019-06-05 18:00:00 28.4 23 Oeste 48 Noroeste 0 1001.5 0.3 12
2019-06-05 17:00:00 29.1 23 Oeste 48 Noroeste 0 1001.3 0.4 12
2019-06-05 16:00:00 28.4 32 Noroeste 59 Noroeste 0 1001.2 0.3 14
2019-06-05 15:00:00 27.8 36 Oeste 59 Oeste 0 1001.2 0.4 16
2019-06-05 14:00:00 26.8 39 Oeste 82 Oeste 0 1000.9 0.6 19
2019-06-05 13:00:00 26.2 44 Oeste 72 Oeste 0 1000.9 0.8 20
2019-06-05 12:00:00 25.4 35 Oeste 58 Oeste 0 1000.8 1 19
2019-06-05 11:00:00 25 43 Oeste 74 Oeste 0 1000.3 0.9 25
2019-06-05 10:00:00 24.1 28 Oeste 42 Oeste 0 1000.1 0.8 44
2019-06-05 09:00:00 20.3 4 Noroeste 13 Noroeste 0 999.8 0.6 79
2019-06-05 08:00:00 17.9 6 Noroeste 11 Noroeste 0 999.4 0.1 88
2019-06-05 07:00:00 16.6 7 Oeste 9 Noroeste 0 999.3 -0.4 92
2019-06-05 06:00:00 16.7 7 Noroeste 9 Noroeste 0 999.2 -1 92
2019-06-05 05:00:00 17.3 6 Oeste 9 Oeste 0 999.3 -1.4 91
2019-06-05 04:00:00 17.9 -- -- -- -- 0 999.7 -1.3 88
2019-06-05 03:00:00 17.7 3 Oeste 11 Nordeste 0 1000.2 -1.2 84
2019-06-05 02:00:00 19 9 Nordeste 13 Nordeste 0 1000.7 -0.8 82
2019-06-05 01:00:00 19.4 10 Nordeste 24 Nordeste 0 1001 0.2 80
2019-06-05 00:00:00 19.8 18 Nordeste 28 Nordeste 0 1001.4 0.7 76
2019-06-04 23:00:00 20 14 Nordeste 28 Nordeste 0 1001.5 0.6 77
2019-06-04 22:00:00 20.2 23 Nordeste 35 Nordeste 0 1000.8 -0.1 82
2019-06-04 21:00:00 21.2 23 Nordeste 37 Nordeste 0 1000.7 -0.7 78
2019-06-04 20:00:00 22.2 26 Nordeste 33 Nordeste 0 1000.9 -1.2 74
2019-06-04 19:00:00 23.3 23 Nordeste 30 Nordeste 0 1000.9 -1.7 70
2019-06-04 18:00:00 24.1 21 Este 30 Este 0 1001.4 -1.8 68
2019-06-04 17:00:00 25 21 Este 32 Este 0 1002.1 -1.9 61
2019-06-04 16:00:00 25.7 19 Este 35 Este 0 1002.6 -2 58
2019-06-04 15:00:00 25.9 19 Este 41 Nordeste 0 1003.2 -2.1 55
2019-06-04 14:00:00 26.2 18 Este 32 Nordeste 0 1004 -1.4 55
2019-06-04 13:00:00 25.8 11 Este 22 Este 0 1004.6 -1.2 54
2019-06-04 12:00:00 25.1 11 Sudeste 21 Sudeste 0 1005.3 -0.5 53
2019-06-04 11:00:00 24.7 10 Este 18 Este 0 1005.4 -0.1 50
2019-06-04 10:00:00 22.7 4 Este 9 Este 0 1005.8 0.3 57
2019-06-04 09:00:00 19.6 7 Noroeste 11 Noroeste 0 1005.8 0.4 62
2019-06-04 08:00:00 16.8 3 Oeste 9 Noroeste 0 1005.5 -0.1 78
2019-06-04 07:00:00 14.8 4 Noroeste 8 Oeste 0 1005.5 -0.6 87
2019-06-04 06:00:00 15.1 5 Oeste 11 Noroeste 0 1005.4 -1.3 87
2019-06-04 05:00:00 15.8 8 Noroeste 11 Noroeste 0 1005.6 -1.9 84
2019-06-04 04:00:00 16.2 5 Noroeste 9 Oeste 0 1006.1 -2 84
2019-06-04 03:00:00 17.1 5 Oeste 9 Oeste 0 1006.7 -1.8 82
2019-06-04 02:00:00 18.3 6 Sudoeste 11 Oeste 0 1007.5 -1.2 78
2019-06-04 01:00:00 19.7 7 Oeste 15 Nordeste 0 1008.1 -0.2 75
2019-06-04 00:00:00 20.3 11 Nordeste 26 Este 0 1008.5 0.4 76
2019-06-03 23:00:00 20.7 16 Nordeste 26 Nordeste 0 1008.7 0.7 70
2019-06-03 22:00:00 21 16 Nordeste 28 Este 0 1008.3 0.3 68
2019-06-03 21:00:00 21.7 21 Este 30 Nordeste 0 1008.1 0.1 65
2019-06-03 20:00:00 22.9 20 Nordeste 33 Este 0 1008 -0.1 63
2019-06-03 19:00:00 23.7 24 Nordeste 33 Este 0 1008 -0.5 60
2019-06-03 18:00:00 24.4 20 Este 30 Este 0 1008 -1 59
2019-06-03 17:00:00 25.4 21 Este 30 Este 0 1008.1 -1.3 56
2019-06-03 16:00:00 25.5 17 Este 28 Nordeste 0 1008.5 -1.4 51
2019-06-03 15:00:00 27.1 17 Este 26 Este 0 1009 -1.4 42
2019-06-03 14:00:00 26.9 17 Sudeste 28 Sudeste 0 1009.4 -1.2 31
2019-06-03 13:00:00 27.4 15 Este 22 Este 0 1009.9 -1 37
2019-06-03 12:00:00 26.1 10 Sudeste 21 Sudeste 0 1010.4 -0.6 38
2019-06-03 11:00:00 24.4 9 Sudeste 15 Sur 0 1010.6 -0.1 45
2019-06-03 10:00:00 -- 5 Sudeste 9 Sudeste 0 1010.9 0.3 --
2019-06-03 09:00:00 19.1 4 Oeste 13 Noroeste 0 1011 0.6 58
2019-06-03 08:00:00 16.2 6 Oeste 9 Oeste 0 1010.7 0.6 64
2019-06-03 07:00:00 14.8 7 Noroeste 13 Noroeste 0 1010.6 0.1 68
2019-06-03 06:00:00 14.4 7 Noroeste 9 Noroeste 0 1010.4 -0.4 70
2019-06-03 05:00:00 15.1 9 Oeste 11 Oeste 0 1010.1 -1 71
2019-06-03 04:00:00 15.5 7 Oeste 9 Oeste 0 1010.5 -0.9 68
2019-06-03 03:00:00 16.4 9 Noroeste 13 Noroeste 0 1010.8 -1 64
2019-06-03 02:00:00 17 7 Oeste -- -- 0 1011.1 -0.7 61
2019-06-03 01:00:00 18.6 7 Noroeste 13 Norte 0 1011.4 0.3 57
2019-06-03 00:00:00 20.2 7 Norte 18 Nordeste 0 1011.8 1 54
2019-06-02 23:00:00 20.9 9 Nordeste 28 Nordeste 0 1011.8 1.3 52
2019-06-02 22:00:00 21.4 9 Nordeste 18 Nordeste 0 1011.1 0.6 50
2019-06-02 21:00:00 22.7 13 Nordeste 28 Este 0 1010.8 0 46
2019-06-02 20:00:00 24.8 12 Este 26 Este 0 1010.5 -0.5 32
2019-06-02 19:00:00 25.6 17 Este 30 Este 0 1010.5 -0.6 30
2019-06-02 18:00:00 26.5 22 Este 35 Este 0 1010.8 -0.6 28
2019-06-02 17:00:00 26.4 24 Sudeste 32 Sudeste 0 1011 -0.9 28
2019-06-02 16:00:00 26.4 24 Sudeste 33 Este 0 1011.1 -1.2 29
2019-06-02 15:00:00 26.5 22 Sudeste 32 Este 0 1011.4 -0.9 30
2019-06-02 14:00:00 26.3 19 Este 28 Este 0 1011.9 -0.5 30
2019-06-02 13:00:00 26.7 20 Sudeste 30 Este 0 1012.3 -0.2 30
2019-06-02 12:00:00 26.7 12 Sudeste 18 Sudeste 0 1012.3 -0.2 25
2019-06-02 11:00:00 25 11 Sudeste 21 Sudeste 0 1012.4 -0.1 29
2019-06-02 10:00:00 23.2 4 Sur 8 Sudoeste 0 1012.5 0 31
2019-06-02 09:00:00 19.6 4 Oeste 8 Oeste 0 1012.5 0.1 46
2019-06-02 08:00:00 16.5 3 Oeste 9 Oeste 0 1012.5 -0.1 56
2019-06-02 07:00:00 13.6 5 Sudoeste 9 Oeste 0 1012.5 -0.5 67
2019-06-02 06:00:00 13.6 4 Oeste 9 Oeste 0 1012.4 -1.1 66
2019-06-02 05:00:00 14.1 5 Oeste 11 Oeste 0 1012.6 -1.3 66
2019-06-02 04:00:00 15 8 Noroeste 13 Noroeste 0 1013 -0.9 64
2019-06-02 03:00:00 15.8 9 Noroeste 13 Noroeste 0 1013.5 -0.8 62
2019-06-02 02:00:00 16.4 7 Noroeste 13 Noroeste 0 1013.9 -0.4 66
2019-06-02 01:00:00 18.7 7 Noroeste 13 Nordeste 0 1013.9 0.3 61
2019-06-02 00:00:00 19.7 6 Nordeste 13 Nordeste 0 1014.3 1.2 59
2019-06-01 23:00:00 20.2 10 Nordeste 26 Nordeste 0 1014.3 1.3 56
2019-06-01 22:00:00 20.9 10 Nordeste 17 Este 0 1013.6 0.7 52
2019-06-01 21:00:00 23.1 12 Este 22 Sudeste 0 1013.1 0 37
2019-06-01 20:00:00 24.2 18 Este 28 Sudeste 0 1013 -0.4 29
2019-06-01 19:00:00 24.9 18 Sudeste 30 Sudeste 0 1012.9 -0.8 27
2019-06-01 18:00:00 25.5 24 Sudeste 32 Este 0 1013.1 -1 27
2019-06-01 17:00:00 26.2 19 Sudeste 33 Este 0 1013.4 -1.1 27
2019-06-01 16:00:00 25.8 23 Sudeste 32 Sudeste 0 1013.7 -1.3 32
2019-06-01 15:00:00 26.1 22 Sudeste 32 Sudeste 0 1014.1 -1 32
2019-06-01 14:00:00 25.7 16 Sudeste 26 Sudeste 0 1014.5 -0.6 33
2019-06-01 13:00:00 25.1 16 Sudeste 30 Este 0 1015 -0.3 38
2019-06-01 12:00:00 25.6 16 Sudeste 26 Este 0 1015.1 0 36
2019-06-01 11:00:00 24.7 9 Sudeste 17 Sur 0 1015.1 -0.1 40
2019-06-01 10:00:00 22.9 6 Sur 13 Sur 0 1015.3 0.3 44
2019-06-01 09:00:00 19.8 2 Oeste 8 Oeste 0 1015.1 0.3 54
2019-06-01 08:00:00 16.4 6 Oeste 11 Oeste 0 1015.2 0.2 67
2019-06-01 07:00:00 13.4 9 Oeste 11 Sudoeste 0 1015 -0.4 79
2019-06-01 06:00:00 13.3 6 Oeste 11 Oeste 0 1014.8 -0.8 79
2019-06-01 05:00:00 14 9 Oeste 11 Oeste 0 1015 -1.1 77
2019-06-01 04:00:00 15.1 5 Oeste 13 Noroeste 0 1015.4 -1 73
2019-06-01 03:00:00 16 10 Noroeste 15 Noroeste 0 1015.6 -0.9 69
2019-06-01 02:00:00 16.6 8 Noroeste 11 Noroeste 0 1016.1 -0.4 67
2019-06-01 01:00:00 17.8 6 Noroeste 8 Noroeste 0 1016.4 0.3 63
2019-06-01 00:00:00 19.5 5 Nordeste 21 Nordeste 0 1016.5 0.8 55
2019-05-31 23:00:00 20.2 8 Nordeste 26 Nordeste 0 1016.5 0.7 53
2019-05-31 22:00:00 20.6 10 Nordeste 26 Sudeste 0 1016.1 0.4 53
2019-05-31 21:00:00 22.1 11 Este 26 Nordeste 0 1015.7 0.1 45
2019-05-31 20:00:00 23.2 18 Sudeste 28 Sudeste 0 1015.8 -0.1 38
2019-05-31 19:00:00 24 22 Este 32 Este 0 1015.7 -0.4 35
2019-05-31 18:00:00 24.6 24 Este 35 Este 0 1015.6 -0.6 32
2019-05-31 17:00:00 25 25 Este 35 Sudeste 0 1015.9 -0.6 33
2019-05-31 16:00:00 25.4 25 Sudeste 32 Este 0 1016.1 -0.8 34
2019-05-31 15:00:00 25.6 24 Sudeste 35 Este 0 1016.2 -0.9 33
2019-05-31 14:00:00 26.6 22 Sudeste 33 Este 0 1016.5 -0.8 30
2019-05-31 13:00:00 26.5 18 Sudeste 28 Sudeste 0 1016.9 -0.6 29
2019-05-31 12:00:00 25.9 9 Sudeste 21 Este 0 1017.1 -0.1 31
2019-05-31 11:00:00 24.3 4 Nordeste 15 Este 0 1017.3 0 35
2019-05-31 10:00:00 22.1 2 Sudoeste 9 Sudoeste 0 1017.5 0.6 43
2019-05-31 09:00:00 19.1 3 Oeste 8 Sudoeste 0 1017.2 0.5 56
2019-05-31 08:00:00 15.6 6 Oeste 9 Oeste 0 1017.3 0.6 69
2019-05-31 07:00:00 12.8 7 Noroeste 9 Noroeste 0 1016.9 0.3 80
2019-05-31 06:00:00 13.6 5 Sudoeste 8 Sudoeste 0 1016.7 -0.4 76
2019-05-31 05:00:00 13.9 6 Sudoeste 9 Oeste 0 1016.7 -0.8 79
2019-05-31 04:00:00 14.7 5 Noroeste 13 Noroeste 0 1016.6 -1.1 76
2019-05-31 03:00:00 15.9 6 Noroeste 9 Noroeste 0 1017.1 -0.5 73
2019-05-31 02:00:00 16.2 6 Noroeste 13 Noroeste 0 1017.5 0 77
2019-05-31 01:00:00 17.1 7 Oeste 11 Oeste 0 1017.7 1 80
2019-05-31 00:00:00 18.5 7 Noroeste 21 Norte 0 1017.6 1.3 77
2019-05-30 23:00:00 19.5 9 Norte 17 Nordeste 0 1017.5 1.6 75
2019-05-30 22:00:00 20.7 12 Nordeste 15 Nordeste 0 1016.7 0.8 65
2019-05-30 21:00:00 23 12 Este 22 Este 0 1016.3 0.3 38
2019-05-30 20:00:00 23.7 13 Este 22 Sudeste 0 1015.9 -0.6 35
2019-05-30 19:00:00 24 14 Sudeste 26 Sudeste 0 1015.9 -0.7 35
2019-05-30 18:00:00 24.3 20 Sudeste 30 Sudeste 0 1016 -0.8 37
2019-05-30 17:00:00 24.3 23 Sudeste 33 Sudeste 0 1016.5 -0.6 33
2019-05-30 16:00:00 25.2 22 Sudeste 33 Sudeste 0 1016.6 -0.7 35
2019-05-30 15:00:00 25.2 22 Sudeste 33 Sudeste 0 1016.8 -1 31
2019-05-30 14:00:00 25.7 20 Sudeste 28 Este 0 1017.1 -0.8 33
2019-05-30 13:00:00 25.7 13 Sudeste 22 Sudeste 0 1017.3 -0.7 29
2019-05-30 12:00:00 24.6 8 Sudeste 15 Sudeste 0 1017.8 -0.1 30
2019-05-30 11:00:00 23 3 Noroeste 9 Sur 0 1017.9 0.3 31
2019-05-30 10:00:00 20.4 3 Sudoeste 15 Sudoeste 0 1018 1 41
2019-05-30 09:00:00 17.6 11 Noroeste 18 Oeste 0 1017.9 1.2 50
2019-05-30 08:00:00 15.1 3 Oeste 11 Oeste 0 1017.6 1.1 62
2019-05-30 07:00:00 11.8 6 Oeste 13 Oeste 0 1017 0.4 76
2019-05-30 06:00:00 12.3 5 Oeste 8 Oeste 0 1016.7 0.2 74
2019-05-30 05:00:00 12.8 6 Sudeste 9 Sur 0 1016.5 -0.4 72
2019-05-30 04:00:00 13.4 9 Noroeste 15 Noroeste 0 1016.6 -0.2 70
2019-05-30 03:00:00 13.6 6 Noroeste 13 Noroeste 0 1016.5 0 72
2019-05-30 02:00:00 14.5 5 Noroeste 13 Noroeste 0 1016.9 0.8 70
2019-05-30 01:00:00 15.9 5 Noroeste 9 Noroeste 0 1016.8 1.8 66
2019-05-30 00:00:00 17.7 0 Calma 8 Sudeste 0 1016.5 2.2 55
2019-05-29 23:00:00 18.1 6 Sudeste 13 Sudeste 0 1016.1 2.2 57
2019-05-29 22:00:00 18.7 10 Sudeste 15 Sudeste 0 1015 1.8 43
2019-05-29 21:00:00 20.3 10 Sudeste 21 Sudeste 0 1014.3 1.2 38
2019-05-29 20:00:00 21.2 16 Sudeste 28 Este 0 1013.9 0.7 37
2019-05-29 19:00:00 22.3 19 Sudeste 30 Este 0 1013.2 0 31
2019-05-29 18:00:00 22.9 18 Sudeste 30 Sudeste 0 1013.1 -0.3 29
2019-05-29 17:00:00 23.4 18 Sudeste 33 Sudeste 0 1013.2 -0.3 29
2019-05-29 16:00:00 23.2 22 Sudeste 35 Sudeste 0 1013.2 -0.6 31
2019-05-29 15:00:00 23.3 26 Sudeste 35 Sudeste 0 1013.4 -0.4 29
2019-05-29 14:00:00 -- 19 Sudeste 32 Este 0 1013.5 -0.4 --
2019-05-29 13:00:00 23.8 15 Sudeste 28 Sudeste 0 1013.8 0.1 25
2019-05-29 12:00:00 23.1 13 Este 22 Este 0 1013.8 0.3 25
2019-05-29 11:00:00 21.7 21 Noroeste 32 Noroeste 0 1013.9 0.6 28
2019-05-29 10:00:00 19.8 15 Noroeste 32 Norte 0 1013.7 0.9 32
2019-05-29 09:00:00 18.9 20 Norte 33 Norte 0 1013.5 1.4 33
2019-05-29 08:00:00 16.4 14 Norte 26 Norte 0 1013.3 1.8 45
2019-05-29 07:00:00 13.7 9 Oeste 21 Noroeste 0 1012.8 1.6 64
2019-05-29 06:00:00 13.6 0 Calma 15 Oeste 0 1012.1 1.1 66
2019-05-29 05:00:00 13.8 7 Oeste 15 Noroeste 0 1011.5 0.5 69
2019-05-29 04:00:00 14.8 2 Sudoeste 11 Noroeste 0 1011.2 0.3 71
2019-05-29 03:00:00 15 8 Oeste 17 Norte 0 1011 0.5 78
2019-05-29 02:00:00 15.9 8 Noroeste 13 Noroeste 0 1011 0.6 74
2019-05-29 01:00:00 16.5 8 Oeste 11 Oeste 0 1010.9 1.4 70
2019-05-29 00:00:00 17.5 7 Oeste 9 Oeste 0 1010.5 1.8 65
2019-05-28 23:00:00 18.2 6 Norte 9 Norte 0 1010.4 2.5 60
2019-05-28 22:00:00 19 5 Sudeste 13 Sudeste 0 1009.5 2.4 55
2019-05-28 21:00:00 20.7 10 Este 17 Este 0 1008.7 2.1 48
2019-05-28 20:00:00 21.7 10 Sudeste 22 Sudeste 0 1007.9 1.8 46
2019-05-28 19:00:00 22.1 13 Este 26 Este 0 1007.1 0.8 46
2019-05-28 18:00:00 22.5 18 Este 30 Este 0 1006.6 0.2 46
2019-05-28 17:00:00 22.7 18 Este 35 Este 0 1006.1 -0.7 42
2019-05-28 16:00:00 22.5 19 Sudeste 32 Sudeste 0 1006.3 -0.8 47
2019-05-28 15:00:00 22.9 22 Sudeste 33 Sudeste 0 1006.4 -0.5 45
2019-05-28 14:00:00 22.7 22 Sudeste 33 Sudeste 0 1006.8 -0.1 46
2019-05-28 13:00:00 22.7 21 Sudeste 33 Sudeste 0 1007.1 0 49
2019-05-28 12:00:00 22.9 20 Sudeste 30 Sudeste 0 1006.9 0.1 55
2019-05-28 11:00:00 23.1 12 Sudeste 21 Sur 0 1006.9 0.6 52
2019-05-28 10:00:00 21.9 9 Sudeste 17 Sudeste 0 1007.1 1.8 56
2019-05-28 09:00:00 19.2 5 Noroeste 13 Noroeste 0 1006.8 1.6 66
2019-05-28 08:00:00 17 7 Noroeste 11 Noroeste 0 1006.3 1.3 75
2019-05-28 07:00:00 15.2 3 Sudoeste -- -- 0 1005.3 0.1 83
2019-05-28 06:00:00 15 4 Oeste 5 Noroeste 0 1005.2 0 86
2019-05-28 05:00:00 16.1 4 Sudoeste 5 Sudoeste 0 1005 -0.4 80
2019-05-28 04:00:00 16.1 4 Sur 11 Noroeste 0 1005.2 -0.5 80
2019-05-28 03:00:00 16.6 10 Oeste 13 Oeste 0 1005.2 -0.5 82
2019-05-28 02:00:00 17.2 4 Oeste 11 Oeste 0 1005.4 0 80
2019-05-28 01:00:00 18 7 Noroeste 13 Noroeste 0 1005.7 1.3 78
2019-05-28 00:00:00 18.7 5 Noroeste 22 Noroeste 0 1005.7 1.5 79
2019-05-27 23:00:00 19.5 11 Noroeste 18 Nordeste 0 1005.4 1.5 76
2019-05-27 22:00:00 20 10 Nordeste 22 Este 0 1004.4 1 75
2019-05-27 21:00:00 20.7 10 Nordeste 30 Nordeste 0 1004.2 0.8 75
2019-05-27 20:00:00 21.2 10 Este 17 Este 0 1003.9 0.3 70
2019-05-27 19:00:00 21.9 14 Este 24 Nordeste 0 1003.4 -0.6 64
2019-05-27 18:00:00 23.8 15 Este 32 Este 0 1003.4 -1.1 49
2019-05-27 17:00:00 23.9 17 Sudeste 30 Sudeste 0 1003.6 -1.3 46
2019-05-27 16:00:00 23.8 18 Sudeste 32 Sudeste 0 1004 -1.3 46
2019-05-27 15:00:00 23.9 19 Sudeste 32 Sudeste 0 1004.5 -0.9 44
2019-05-27 14:00:00 23.8 17 Sudeste 26 Este 0 1004.9 -0.7 47
2019-05-27 13:00:00 24.4 18 Sudeste 28 Sudeste 0 1005.3 -0.9 41
2019-05-27 12:00:00 25.1 7 Nordeste 17 Este 0 1005.4 -0.5 34
2019-05-27 11:00:00 24 3 Sur 13 Nordeste 0 1005.6 -0.3 36
2019-05-27 10:00:00 21.8 5 Noroeste 15 Noroeste 0 1006.2 0.2 47
2019-05-27 09:00:00 19.2 10 Oeste 15 Noroeste 0 1005.9 0 56
2019-05-27 08:00:00 15.6 8 Oeste 11 Oeste 0 1005.9 -0.3 75
2019-05-27 07:00:00 13.4 6 Oeste 8 Oeste 0 1006 -0.6 85
2019-05-27 06:00:00 13.8 2 Sudoeste 9 Sudoeste 0 1005.9 -1.1 82
2019-05-27 05:00:00 15 9 Oeste 13 Oeste 0 1006.2 -1.4 77
2019-05-27 04:00:00 14.6 9 Oeste 15 Oeste 0 1006.6 -1.6 81
2019-05-27 03:00:00 14.4 11 Oeste 15 Oeste 0 1007 -1.4 85
2019-05-27 02:00:00 15.2 8 Oeste 11 Oeste 0 1007.6 -0.8 83
2019-05-27 01:00:00 16.5 6 Oeste 11 Noroeste 0 1008.2 0.2 78
2019-05-27 00:00:00 17.4 6 Noroeste 13 Noroeste 0 1008.4 0.5 73
2019-05-26 23:00:00 19.3 4 Norte 18 Nordeste 0 1008.4 0.5 59
2019-05-26 22:00:00 19.7 3 Este 5 Este 0 1008 0.3 65
2019-05-26 21:00:00 20.7 4 Este 15 Sudeste 0 1007.9 -0.1 60
2019-05-26 20:00:00 21.2 10 Sudeste 21 Este 0 1007.9 -0.1 53
2019-05-26 19:00:00 22.2 16 Sudeste 24 Este 0 1007.7 -0.6 49
2019-05-26 18:00:00 22.6 16 Sudeste 28 Sudeste 0 1008 -0.4 48
2019-05-26 17:00:00 23.5 18 Sudeste 28 Este 0 1008 -0.6 42
2019-05-26 16:00:00 23 21 Sudeste 32 Sudeste 0 1008.3 -0.5 46
2019-05-26 15:00:00 23.6 18 Sudeste 32 Sudeste 0 1008.4 -1 39
2019-05-26 14:00:00 23.9 19 Sudeste 30 Sudeste 0 1008.6 -0.9 38
2019-05-26 13:00:00 24.7 12 Este 21 Este 0 1008.8 -0.9 35
2019-05-26 12:00:00 23.5 5 Noroeste 21 Noroeste 0 1009.4 -0.5 34
2019-05-26 11:00:00 21.9 8 Noroeste 21 Noroeste 0 1009.5 -0.5 39
2019-05-26 10:00:00 19.9 12 Noroeste 28 Noroeste 0 1009.7 0.1 47
2019-05-26 09:00:00 17.9 15 Noroeste 22 Noroeste 0 1009.9 0.6 55
2019-05-26 08:00:00 15.9 9 Noroeste 15 Noroeste 0 1010 0.4 67
2019-05-26 07:00:00 13.6 11 Noroeste 17 Noroeste 0 1009.6 -0.2 82
2019-05-26 06:00:00 13.5 9 Noroeste 13 Oeste 0 1009.3 -0.7 91
2019-05-26 05:00:00 14.1 5 Oeste 13 Noroeste 0 1009.6 -0.8 90
2019-05-26 04:00:00 14.4 10 Noroeste 15 Noroeste 0 1009.8 -1.2 89
2019-05-26 03:00:00 14.1 7 Oeste 11 Oeste 0 1010 -0.8 90
2019-05-26 02:00:00 14.8 5 Oeste 9 Oeste 0 1010.4 -0.5 87
2019-05-26 01:00:00 16 6 Oeste 9 Oeste 0 1011 0.6 84
2019-05-26 00:00:00 17.3 5 Noroeste 8 Oeste 0 1010.8 1 78
2019-05-25 23:00:00 18.8 0 Calma 9 Sudeste 0 1010.9 1.4 65
2019-05-25 22:00:00 19.2 9 Sudeste 17 Este 0 1010.4 1.2 66
2019-05-25 21:00:00 20.7 11 Sudeste 22 Sudeste 0 1009.8 0.7 51
2019-05-25 20:00:00 21.4 13 Sudeste 18 Sudeste 0 1009.5 0.4 51
2019-05-25 19:00:00 21.8 14 Sudeste 24 Sudeste 0 1009.2 -0.2 50
2019-05-25 18:00:00 23.2 15 Sudeste 24 Sudeste 0 1009.1 -0.5 45
2019-05-25 17:00:00 23.5 10 Este 30 Este 0 1009.1 -0.9 43
2019-05-25 16:00:00 22.9 12 Este 30 Este 0 1009.4 -0.9 45
2019-05-25 15:00:00 22.7 18 Este 30 Este 0 1009.6 -0.8 50
2019-05-25 14:00:00 21.1 11 Sudeste 18 Sudeste 0 1010 0 60
2019-05-25 13:00:00 19.8 8 Sudeste 17 Sudeste 0 1010.3 0.6 64
2019-05-25 12:00:00 19 4 Sur 11 Nordeste 0 1010.4 1.3 65
2019-05-25 11:00:00 17.7 9 Este 15 Nordeste 0 1010 1.4 74
2019-05-25 10:00:00 17.7 7 Este 11 Este 0 1009.7 1.6 73
2019-05-25 09:00:00 16.6 2 Sur 9 Oeste 0 1009.1 1.3 82
2019-05-25 08:00:00 15.6 2 Oeste 11 Norte 0 1008.6 1 84
2019-05-25 07:00:00 15.4 6 Noroeste 32 Noroeste 0 1008.1 0.5 84
2019-05-25 06:00:00 15.3 9 Noroeste 15 Noroeste 0 1007.8 0.1 87
2019-05-25 05:00:00 15.4 5 Oeste 11 Oeste 0 1007.6 -0.5 91
2019-05-25 04:00:00 15.6 4 Oeste 13 Oeste 0 1007.6 -0.8 96
2019-05-25 03:00:00 15.7 10 Oeste 13 Oeste 0 1007.7 -0.9 95
2019-05-25 02:00:00 15.6 8 Oeste 11 Oeste 0.1 1008.1 -0.3 97
2019-05-25 01:00:00 16.1 6 Sudoeste 9 Noroeste 0.3 1008.4 0.5 94
2019-05-25 00:00:00 16.1 7 Noroeste 11 Noroeste 0 1008.6 0.8 94
2019-05-24 23:00:00 16.2 10 Noroeste 17 Noroeste 0 1008.4 0.5 94
2019-05-24 22:00:00 16.4 5 Oeste 11 Noroeste 0 1007.9 0.2 95
2019-05-24 21:00:00 16.7 5 Noroeste 18 Norte 0 1007.8 -0.2 91
2019-05-24 20:00:00 17.2 6 Noroeste 13 Noroeste 0.1 1007.9 0.1 90
2019-05-24 19:00:00 17.3 7 Nordeste 28 Nordeste 0.2 1007.7 -0.5 82
2019-05-24 18:00:00 17.3 4 Nordeste 13 Este 0.2 1008 -0.3 85
2019-05-24 17:00:00 16.9 5 Sudeste 21 Nordeste 0.5 1007.8 -0.6 84
2019-05-24 16:00:00 17 14 Nordeste 30 Nordeste 0 1008.2 -0.1 83
2019-05-24 15:00:00 17.1 18 Nordeste 33 Nordeste 0 1008.3 1 88
2019-05-24 14:00:00 16.9 17 Nordeste 28 Nordeste 0 1008.4 0.2 90
2019-05-24 13:00:00 16.3 15 Nordeste 28 Nordeste 0.6 1008.3 0.7 93
2019-05-24 12:00:00 16.1 19 Este 32 Este 1.5 1007.3 -0.4 93
2019-05-24 11:00:00 16.5 15 Nordeste 30 Norte 1 1008.2 1.7 91
2019-05-24 10:00:00 17.3 19 Norte 33 Norte 0.2 1007.6 1.4 86
2019-05-24 09:00:00 17.8 18 Norte 30 Norte 0.1 1007.7 1.6 85
2019-05-24 08:00:00 18.2 15 Norte 30 Nordeste 0 1006.5 0.6 81
2019-05-24 07:00:00 18.4 15 Norte 30 Nordeste 0 1006.2 0.1 78
2019-05-24 06:00:00 18.4 13 Nordeste 18 Este 0 1006.1 -0.3 77
2019-05-24 05:00:00 18.3 5 Nordeste 11 Nordeste 0 1005.9 -1 83
2019-05-24 04:00:00 18.4 5 Norte 11 Este 0 1006.1 -1 86
2019-05-24 03:00:00 18.7 8 Este 11 Este 0 1006.4 -0.9 84
2019-05-24 02:00:00 18.6 8 Este 13 Sudeste 0 1006.9 -0.5 84
2019-05-24 01:00:00 18.9 10 Este 13 Este 0 1007.1 0.1 81
2019-05-24 00:00:00 19.2 7 Sudeste 9 Sudeste 0 1007.3 0.4 77
2019-05-23 23:00:00 19.3 6 Nordeste 22 Nordeste 0 1007.4 0.7 75
2019-05-23 22:00:00 19.9 6 Nordeste 24 Nordeste 0 1007 0.2 70
2019-05-23 21:00:00 21.2 15 Nordeste 32 Nordeste 0 1006.9 -0.4 59
2019-05-23 20:00:00 22.5 18 Nordeste 28 Nordeste 0 1006.7 -0.9 49
2019-05-23 19:00:00 23.2 20 Nordeste 28 Nordeste 0 1006.8 -1 51
2019-05-23 18:00:00 23.3 16 Nordeste 33 Nordeste 0 1007.3 -1 48
2019-05-23 17:00:00 23.5 21 Este 30 Este 0 1007.6 -1.1 48
2019-05-23 16:00:00 24.9 19 Este 26 Este 0 1007.8 -1.2 47
2019-05-23 15:00:00 24.5 18 Sudeste 28 Sudeste 0 1008.3 -1.4 46
2019-05-23 14:00:00 25.7 18 Sudeste 26 Sudeste 0 1008.7 -1.4 49
2019-05-23 13:00:00 26.9 10 Sudeste 21 Sudeste 0 1009 -1.5 40
2019-05-23 12:00:00 25.5 3 Oeste 13 Sur 0 1009.7 -0.7 42
2019-05-23 11:00:00 23.6 4 Este 11 Este 0 1010.1 -0.2 51
2019-05-23 10:00:00 21.1 3 Norte 13 Norte 0 1010.5 0.4 60
2019-05-23 09:00:00 18 8 Noroeste 13 Noroeste 0 1010.4 0.5 73
2019-05-23 08:00:00 15.6 3 Oeste 8 Oeste 0 1010.3 0.3 85
2019-05-23 07:00:00 13.7 4 Noroeste 11 Noroeste 0 1010.1 -0.1 93
2019-05-23 06:00:00 14.2 8 Noroeste 11 Noroeste 0 1009.9 -0.5 92
2019-05-23 05:00:00 14.5 5 Norte 8 Norte 0 1010 -0.6 93
2019-05-23 04:00:00 15.2 3 Oeste 5 Oeste 0 1010.2 -0.9 90
2019-05-23 03:00:00 15.6 4 Sudoeste 9 Oeste 0 1010.4 -0.6 90
2019-05-23 02:00:00 16 10 Oeste 11 Oeste 0 1010.6 -0.5 89
2019-05-23 01:00:00 17.2 4 Sudoeste 11 Norte 0 1011.1 0.5 87
2019-05-23 00:00:00 17.8 6 Norte 13 Nordeste 0 1011 0.8 82
2019-05-22 23:00:00 18.3 11 Nordeste 15 Nordeste 0 1011.1 1.1 81
2019-05-22 22:00:00 18.6 12 Nordeste 22 Nordeste 0 1010.6 1.1 80
2019-05-22 21:00:00 19.4 12 Nordeste 24 Este 0 1010.2 0.4 77
2019-05-22 20:00:00 20.4 16 Este 24 Este 0 1010 0.3 71
2019-05-22 19:00:00 21.5 18 Nordeste 26 Este 0 1009.5 -0.4 63
2019-05-22 18:00:00 22.8 18 Este 30 Este 0 1009.8 -0.4 57
2019-05-22 17:00:00 23.1 19 Este 32 Sudeste 0 1009.7 -1.1 54
2019-05-22 16:00:00 23.5 19 Sudeste 32 Sudeste 0 1009.9 -1.3 51
2019-05-22 15:00:00 24.4 16 Este 28 Sudeste 0 1010.2 -1.2 48
2019-05-22 14:00:00 23.6 10 Este 24 Este 0 1010.8 -0.6 49
2019-05-22 13:00:00 22.9 13 Este 24 Este 0 1011.2 -0.1 49
2019-05-22 12:00:00 22.6 10 Este 26 Nordeste 0 1011.4 0.4 55
2019-05-22 11:00:00 21.3 8 Este 21 Este 0 1011.4 0.5 60
2019-05-22 10:00:00 19.3 4 Nordeste 11 Norte 0 1011.3 1 65
2019-05-22 09:00:00 16.2 8 Noroeste 17 Noroeste 0 1011 1 78
2019-05-22 08:00:00 14 6 Noroeste 13 Noroeste 0 1010.9 1.1 87
2019-05-22 07:00:00 12.3 12 Noroeste 17 Noroeste 0 1010.3 0.6 94
2019-05-22 06:00:00 12.7 10 Noroeste 13 Noroeste 0 1010 0.4 94
2019-05-22 05:00:00 13.3 8 Noroeste 13 Noroeste 0 1009.8 0.1 93
2019-05-22 04:00:00 13.2 8 Noroeste 11 Noroeste 0 1009.7 -0.2 94
2019-05-22 03:00:00 14.5 7 Sudoeste 11 Sudoeste 0 1009.6 -0.1 92
2019-05-22 02:00:00 14.5 9 Sudoeste 11 Sudoeste 0 1009.7 0.1 89
2019-05-22 01:00:00 14.9 7 Sur 21 Oeste 0 1009.9 0.2 87
2019-05-22 00:00:00 15 13 Noroeste 26 Noroeste 0 1009.7 -0.5 88
2019-05-21 23:00:00 15.7 16 Noroeste 24 Noroeste 0 1009.6 0.6 87
2019-05-21 22:00:00 16.6 11 Oeste 21 Noroeste 0 1009.7 0.9 84
2019-05-21 21:00:00 16 16 Noroeste 30 Noroeste 0 1010.2 0.6 87
2019-05-21 20:00:00 16.6 18 Oeste 30 Este 0.6 1009 1.6 85
2019-05-21 19:00:00 16.2 15 Este 33 Nordeste 7.5 1008.8 1.4 84
2019-05-21 18:00:00 20.1 15 Nordeste 33 Este 0 1009.6 1.9 71
2019-05-21 17:00:00 22.9 18 Este 33 Este 0 1007.4 -0.7 61
2019-05-21 16:00:00 23.4 17 Sudeste 32 Sudeste 0 1007.4 -1.2 55
2019-05-21 15:00:00 23.6 15 Este 33 Sudeste 0 1007.7 -1.3 56
2019-05-21 14:00:00 23 14 Este 24 Este 0 1008.1 -0.8 57
2019-05-21 13:00:00 22.1 12 Este 22 Este 0 1008.6 -0.3 60
2019-05-21 12:00:00 21.3 4 Sur 18 Nordeste 0 1009 0.6 65
2019-05-21 11:00:00 18.6 5 Este 11 Este 0 1008.9 0.9 73
2019-05-21 10:00:00 17.7 5 Sudoeste 11 Sudoeste 0 1008.9 2.2 69
2019-05-21 09:00:00 16.4 9 Noroeste 11 Noroeste 0 1008.4 1.7 70
2019-05-21 08:00:00 15.6 4 Oeste 17 Norte 0 1008 1.4 81
2019-05-21 07:00:00 15.3 9 Norte 17 Norte 0 1006.7 0.1 75
2019-05-21 06:00:00 15.2 8 Noroeste 13 Noroeste 0 1006.7 -0.1 82
2019-05-21 05:00:00 15.5 9 Noroeste 13 Noroeste 0 1006.6 -0.6 79
2019-05-21 04:00:00 15.5 8 Noroeste 11 Noroeste 0 1006.6 -0.6 81
2019-05-21 03:00:00 15.6 9 Noroeste 11 Noroeste 0 1006.8 -0.3 79
2019-05-21 02:00:00 15.9 4 Oeste 9 Oeste 0 1007.2 0.4 81
2019-05-21 01:00:00 16.5 9 Noroeste 13 Nordeste 0 1007.2 1.1 76
2019-05-21 00:00:00 17 7 Nordeste 15 Nordeste 0 1007.1 1.8 78